Time;durP1;ratioP1;P1;durP2;ratioP2;P2;SDS_P1;SDS_P2;PMS_P1;PMS_P2;Temp;Humidity;BMP_temperature;BMP_pressure;BME280_temperature;BME280_humidity;BME280_pressure;Samples;Min_cycle;Max_cycle;Signal;HPM_P1;HPM_P2
2021/06/16 00:01:33;;;;;;;6.32;3.00;;;;;;;11.57;50.00;101929.13;5008732;28;20771;-68
2021/06/16 00:03:58;;;;;;;6.93;3.30;;;;;;;11.59;49.95;101927.31;5007450;28;20080;-69
2021/06/16 00:06:24;;;;;;;7.20;2.60;;;;;;;11.62;49.43;101927.25;5007475;28;20155;-68
2021/06/16 00:08:49;;;;;;;5.97;2.42;;;;;;;11.58;49.93;101927.38;5010356;28;20041;-68
2021/06/16 00:11:15;;;;;;;9.35;2.63;;;;;;;11.66;49.32;101918.41;5008909;28;20049;-69
2021/06/16 00:13:41;;;;;;;7.60;2.50;;;;;;;11.55;49.88;101927.44;5008848;28;20138;-68
2021/06/16 00:16:06;;;;;;;3.95;2.50;;;;;;;11.51;49.78;101923.19;5008908;28;20030;-71
2021/06/16 00:18:32;;;;;;;7.20;2.58;;;;;;;11.38;50.03;101920.06;5006900;28;20030;-70
2021/06/16 00:20:58;;;;;;;4.05;2.08;;;;;;;11.39;50.30;101930.47;5010357;28;20111;-71
2021/06/16 00:23:23;;;;;;;6.15;2.17;;;;;;;11.36;50.48;101920.09;5009108;28;20033;-69
2021/06/16 00:25:49;;;;;;;9.52;3.05;;;;;;;11.36;50.76;101917.47;5007681;28;20529;-69
2021/06/16 00:28:15;;;;;;;6.40;2.28;;;;;;;11.37;50.89;101915.72;5024518;28;20041;-68
2021/06/16 00:30:42;;;;;;;7.32;2.40;;;;;;;11.27;50.79;101920.34;5008018;28;20041;-68
2021/06/16 00:33:08;;;;;;;5.07;3.00;;;;;;;11.31;50.67;101916.75;5008643;28;20414;-69
2021/06/16 00:35:33;;;;;;;9.55;2.65;;;;;;;11.31;50.60;101913.25;5006179;28;20083;-68
2021/06/16 00:37:59;;;;;;;3.97;2.80;;;;;;;11.30;50.73;101915.00;5007840;28;20036;-69
2021/06/16 00:40:29;;;;;;;7.35;2.63;;;;;;;11.30;50.51;101920.25;5008079;28;20034;-69
2021/06/16 00:43:00;;;;;;;8.80;2.20;;;;;;;11.31;50.62;101922.00;5009309;28;20485;-68
2021/06/16 00:45:26;;;;;;;2.13;1.70;;;;;;;11.30;50.98;101908.94;5007837;28;20021;-69
2021/06/16 00:47:55;;;;;;;4.18;2.88;;;;;;;11.32;50.21;101902.75;5010165;28;20025;-69
2021/06/16 00:50:23;;;;;;;5.82;2.50;;;;;;;11.27;50.13;101906.41;5011186;28;20782;-68
2021/06/16 00:52:49;;;;;;;6.65;1.73;;;;;;;11.43;49.45;101908.56;5006572;28;20033;-68
2021/06/16 00:55:17;;;;;;;2.80;1.60;;;;;;;11.42;49.57;101904.25;5005243;28;20026;-68
2021/06/16 00:57:42;;;;;;;7.13;2.45;;;;;;;11.42;49.67;101899.00;5010988;28;20044;-73
2021/06/16 01:00:11;;;;;;;7.80;2.65;;;;;;;11.38;49.47;101902.59;5010956;28;20034;-70
2021/06/16 01:03:05;;;;;;;4.13;2.33;;;;;;;11.19;49.42;101909.22;5005136;28;20227;-71
2021/06/16 01:05:46;;;;;;;4.20;2.08;;;;;;;11.13;50.05;101904.13;5006312;28;20096;-71
2021/06/16 01:08:22;;;;;;;8.43;2.22;;;;;;;11.18;50.11;101907.50;5005882;28;20042;-70
2021/06/16 01:10:49;;;;;;;5.25;2.13;;;;;;;11.23;49.77;101893.38;5005208;28;20689;-70
2021/06/16 01:13:31;;;;;;;3.70;2.00;;;;;;;11.28;49.77;101898.50;5006519;28;20042;-70
2021/06/16 01:16:02;;;;;;;5.47;1.63;;;;;;;11.28;49.84;101898.50;5008233;28;20038;-71
2021/06/16 01:18:30;;;;;;;4.03;1.98;;;;;;;11.27;49.21;101904.66;5010449;28;20030;-71
2021/06/16 01:20:56;;;;;;;5.65;2.97;;;;;;;11.10;50.09;101896.38;5000369;28;20030;-71
2021/06/16 01:23:37;;;;;;;4.10;1.70;;;;;;;11.20;50.22;101901.31;5010820;28;20037;-70
2021/06/16 01:26:03;;;;;;;4.90;1.88;;;;;;;11.21;49.75;101902.19;5010005;28;20079;-71
2021/06/16 01:28:37;;;;;;;5.88;1.40;;;;;;;11.15;50.11;101903.22;5012073;28;20030;-71
2021/06/16 01:31:04;;;;;;;7.45;1.85;;;;;;;11.18;49.88;101897.88;5007756;28;20038;-70
2021/06/16 01:33:31;;;;;;;5.07;1.67;;;;;;;11.31;49.38;101898.44;5010618;28;20060;-70
2021/06/16 01:35:58;;;;;;;4.90;1.98;;;;;;;11.34;49.19;101895.72;5006422;28;20069;-69
2021/06/16 01:38:24;;;;;;;2.60;1.42;;;;;;;11.27;49.17;101899.41;5014717;28;20030;-70
2021/06/16 01:40:53;;;;;;;4.28;1.63;;;;;;;11.31;48.70;101901.06;5009713;28;20037;-70
2021/06/16 01:43:21;;;;;;;4.50;1.33;;;;;;;11.26;48.98;101900.28;5009495;28;20057;-68
2021/06/16 01:45:49;;;;;;;3.10;1.63;;;;;;;11.33;48.56;101894.00;5011260;28;20122;-70
2021/06/16 01:48:17;;;;;;;2.80;1.85;;;;;;;11.25;48.53;101896.81;5010708;28;20722;-71
2021/06/16 01:50:48;;;;;;;3.17;1.80;;;;;;;11.06;49.28;101895.56;5012348;28;20556;-71
2021/06/16 01:53:15;;;;;;;4.18;1.67;;;;;;;10.98;49.43;101892.31;5015311;28;20045;-71
2021/06/16 01:55:41;;;;;;;5.47;1.98;;;;;;;10.88;50.07;101889.06;5012823;28;20037;-71
2021/06/16 01:58:08;;;;;;;6.10;2.70;;;;;;;10.79;50.52;101897.09;5011938;28;20034;-72
2021/06/16 02:00:39;;;;;;;6.18;2.33;;;;;;;10.84;50.82;101892.69;5010718;28;20443;-71
2021/06/16 02:03:05;;;;;;;8.18;1.90;;;;;;;10.98;50.40;101887.94;5027825;28;20029;-72
2021/06/16 02:05:31;;;;;;;6.00;1.75;;;;;;;10.84;50.40;101890.06;5008675;28;20037;-71
2021/06/16 02:08:01;;;;;;;5.03;2.38;;;;;;;10.64;51.02;101893.97;5010076;28;20393;-71
2021/06/16 02:10:35;;;;;;;4.53;2.47;;;;;;;10.59;51.95;101890.63;5012391;28;20513;-71
2021/06/16 02:13:04;;;;;;;5.78;2.63;;;;;;;10.78;50.99;101885.78;5009338;28;20088;-70
2021/06/16 02:15:58;;;;;;;6.03;2.58;;;;;;;10.82;50.85;101892.69;4998248;28;20501;-68
2021/06/16 02:18:30;;;;;;;4.68;2.20;;;;;;;10.67;51.04;101884.34;5007598;28;20069;-70
2021/06/16 02:20:55;;;;;;;;;;;;;;;10.67;51.28;101881.72;5010313;28;20398;-69
2021/06/16 02:23:24;;;;;;;7.72;2.67;;;;;;;10.63;51.26;101879.16;5008181;28;19917;-69
2021/06/16 02:25:50;;;;;;;6.50;3.42;;;;;;;10.58;51.65;101883.66;5011234;28;20153;-69
2021/06/16 02:28:16;;;;;;;4.53;2.85;;;;;;;10.59;51.64;101869.72;5011638;28;20718;-69
2021/06/16 02:30:41;;;;;;;4.55;3.22;;;;;;;10.59;51.70;101888.00;5011375;28;20524;-69
2021/06/16 02:33:06;;;;;;;6.13;2.70;;;;;;;10.53;51.55;101880.31;5008605;28;20510;-73
2021/06/16 02:35:32;;;;;;;5.70;2.38;;;;;;;10.55;51.76;101877.66;5006893;28;20068;-70
2021/06/16 02:38:04;;;;;;;8.32;3.13;;;;;;;10.57;51.70;101892.41;5008149;28;20418;-69
2021/06/16 02:40:32;;;;;;;4.80;2.53;;;;;;;10.58;51.77;101878.44;5007679;28;20034;-71
2021/06/16 02:42:58;;;;;;;6.53;2.83;;;;;;;10.57;51.49;101879.34;5028665;28;20029;-71
2021/06/16 02:45:26;;;;;;;7.85;3.58;;;;;;;10.54;51.35;101871.56;5011307;28;20037;-72
2021/06/16 02:47:53;;;;;;;4.45;2.42;;;;;;;10.42;51.99;101870.09;5010280;28;20065;-72
2021/06/16 02:50:23;;;;;;;5.88;2.80;;;;;;;10.39;51.92;101872.81;5009924;28;20497;-72
2021/06/16 02:52:50;;;;;;;5.75;2.85;;;;;;;10.41;51.93;101872.75;5006571;28;20073;-72
2021/06/16 02:55:16;;;;;;;6.97;3.13;;;;;;;10.40;51.87;101868.41;5010841;28;20045;-72
2021/06/16 02:57:44;;;;;;;6.15;3.40;;;;;;;10.49;51.82;101873.44;5009503;28;20037;-72
2021/06/16 03:00:13;;;;;;;7.43;2.78;;;;;;;10.49;51.93;101872.56;5011571;28;20061;-72
2021/06/16 03:02:42;;;;;;;6.15;3.15;;;;;;;10.51;51.62;101869.03;5009517;28;20125;-72
2021/06/16 03:05:10;;;;;;;7.65;4.20;;;;;;;10.47;51.79;101877.84;5008693;28;20100;-72
2021/06/16 03:07:38;;;;;;;8.77;3.92;;;;;;;10.54;51.81;101882.00;5008686;28;20049;-71
2021/06/16 03:10:04;;;;;;;10.25;3.17;;;;;;;10.56;51.70;101880.22;5010256;28;20128;-72
2021/06/16 03:12:31;;;;;;;6.25;3.45;;;;;;;10.55;51.78;101868.06;5007354;28;20131;-72
2021/06/16 03:14:59;;;;;;;8.75;3.72;;;;;;;10.56;51.51;101879.38;5010894;28;20029;-72
2021/06/16 03:17:26;;;;;;;10.02;3.20;;;;;;;10.54;51.51;101876.78;5009415;28;20029;-72
2021/06/16 03:19:52;;;;;;;5.65;3.25;;;;;;;10.48;51.54;101879.56;5006201;28;20061;-72
2021/06/16 03:22:19;;;;;;;8.77;3.00;;;;;;;10.50;51.88;101867.28;5008083;28;20037;-72
2021/06/16 03:24:47;;;;;;;7.30;3.60;;;;;;;10.56;51.48;101864.53;5006867;28;20082;-67
2021/06/16 03:27:13;;;;;;;5.45;3.65;;;;;;;10.58;51.44;101878.44;5007453;28;20616;-68
2021/06/16 03:29:40;;;;;;;5.22;3.47;;;;;;;10.46;51.94;101872.63;5010171;28;20037;-68
2021/06/16 03:32:10;;;;;;;6.13;3.78;;;;;;;10.51;51.60;101866.41;5007526;28;20144;-69
2021/06/16 03:34:36;;;;;;;6.75;3.92;;;;;;;10.52;51.94;101868.13;5008443;28;20411;-68
2021/06/16 03:37:04;;;;;;;6.45;3.63;;;;;;;10.64;51.63;101874.81;5022006;28;20129;-69
2021/06/16 03:39:31;;;;;;;9.45;3.85;;;;;;;10.56;51.63;101864.53;5011050;28;20390;-69
2021/06/16 03:41:57;;;;;;;4.97;3.97;;;;;;;10.56;51.84;101864.53;5008852;28;20029;-69
2021/06/16 03:44:25;;;;;;;7.97;3.80;;;;;;;10.43;51.61;101868.34;5005869;28;20403;-68
2021/06/16 03:46:53;;;;;;;5.65;3.22;;;;;;;10.63;51.71;101865.25;5009360;28;20030;-69
2021/06/16 03:49:22;;;;;;;6.95;3.95;;;;;;;10.70;51.53;101860.72;5010180;28;20037;-67
2021/06/16 03:51:49;;;;;;;5.88;4.07;;;;;;;10.67;51.48;101860.81;5009767;28;20033;-68
2021/06/16 03:54:15;;;;;;;5.70;2.80;;;;;;;10.78;51.19;101851.78;5008887;28;20029;-68
2021/06/16 03:56:42;;;;;;;6.47;3.22;;;;;;;10.90;51.05;101855.03;5022766;28;20553;-68
2021/06/16 03:59:08;;;;;;;5.05;2.47;;;;;;;10.96;50.75;101845.25;5009023;28;20038;-68
2021/06/16 04:01:40;;;;;;;4.88;3.80;;;;;;;11.05;50.61;101850.25;5008221;28;20033;-68
2021/06/16 04:04:06;;;;;;;10.60;3.25;;;;;;;11.05;50.47;101845.03;5021901;28;20087;-69
2021/06/16 04:06:34;;;;;;;5.07;2.53;;;;;;;10.91;50.83;101849.75;5009718;28;20041;-68
2021/06/16 04:09:02;;;;;;;11.60;2.63;;;;;;;11.02;50.15;101839.03;5007212;28;20041;-68
2021/06/16 04:11:28;;;;;;;7.50;2.50;;;;;;;11.21;50.10;101842.00;5008063;28;20030;-68
2021/06/16 04:13:57;;;;;;;2.70;1.63;;;;;;;11.31;49.67;101839.97;5009444;28;20037;-71
2021/06/16 04:16:26;;;;;;;5.90;2.85;;;;;;;11.35;48.99;101841.59;5007725;28;20030;-72
2021/06/16 04:18:52;;;;;;;10.23;2.70;;;;;;;11.40;49.08;101843.22;5024564;28;20029;-68
2021/06/16 04:21:18;;;;;;;3.25;2.17;;;;;;;11.45;49.10;101836.06;5009366;28;20048;-68
2021/06/16 04:23:43;;;;;;;5.15;2.45;;;;;;;11.50;48.80;101832.47;5007879;28;20124;-71
2021/06/16 04:26:09;;;;;;;6.38;2.75;;;;;;;11.57;49.02;101839.25;5008569;28;20038;-71
2021/06/16 04:28:35;;;;;;;7.90;2.30;;;;;;;11.79;48.19;101823.78;5008988;28;20044;-71
2021/06/16 04:31:00;;;;;;;5.38;1.98;;;;;;;11.94;48.30;101832.97;5026157;28;20579;-71
2021/06/16 04:33:26;;;;;;;7.07;3.00;;;;;;;11.93;47.99;101826.00;5007970;28;20049;-71
2021/06/16 04:35:52;;;;;;;4.47;2.20;;;;;;;11.86;48.03;101826.16;5006568;28;20033;-66
2021/06/16 04:38:18;;;;;;;6.97;2.33;;;;;;;11.94;48.02;101827.72;5007925;28;20033;-70
2021/06/16 04:40:43;;;;;;;5.93;2.05;;;;;;;11.99;47.95;101828.44;5006938;28;20095;-68
2021/06/16 04:43:09;;;;;;;5.28;2.15;;;;;;;11.93;48.14;101826.00;5007616;28;20510;-68
2021/06/16 04:45:37;;;;;;;8.00;1.95;;;;;;;12.16;47.09;101823.53;5007617;28;20033;-68
2021/06/16 04:48:04;;;;;;;8.85;2.13;;;;;;;12.06;47.79;101816.84;5007496;28;20403;-68
2021/06/16 04:50:30;;;;;;;4.68;1.45;;;;;;;12.18;47.79;101813.84;5007418;28;20499;-68
2021/06/16 04:52:56;;;;;;;2.65;1.98;;;;;;;12.38;47.22;101817.56;5011782;28;20057;-69
2021/06/16 04:55:24;;;;;;;3.53;2.17;;;;;;;12.43;47.17;101816.53;5009589;28;20026;-68
2021/06/16 04:57:52;;;;;;;4.07;2.42;;;;;;;12.62;46.96;101806.28;5011405;28;20025;-68
2021/06/16 05:00:18;;;;;;;11.18;1.65;;;;;;;12.60;46.81;101804.63;5017574;28;20061;-68
2021/06/16 05:02:44;;;;;;;3.05;1.70;;;;;;;12.87;46.39;101805.47;5010355;28;20557;-69
2021/06/16 05:05:13;;;;;;;7.65;1.75;;;;;;;13.32;45.46;101804.75;5010055;28;20491;-69
2021/06/16 05:07:38;;;;;;;7.40;1.70;;;;;;;14.68;42.55;101800.28;5009151;28;20113;-69
2021/06/16 05:10:06;;;;;;;4.68;1.52;;;;;;;16.53;37.93;101795.25;5009961;28;20156;-69
2021/06/16 05:12:31;;;;;;;3.60;1.48;;;;;;;17.81;34.90;101792.88;5012766;28;20146;-68
2021/06/16 05:14:57;;;;;;;6.53;1.65;;;;;;;18.77;33.13;101798.78;5012542;28;20552;-70
2021/06/16 05:17:23;;;;;;;6.10;1.27;;;;;;;20.08;30.95;101793.25;5012178;28;20033;-70
2021/06/16 05:19:55;;;;;;;4.45;1.65;;;;;;;20.54;30.35;101787.53;5009913;28;20046;-71
2021/06/16 05:22:21;;;;;;;2.47;1.02;;;;;;;20.82;29.09;101783.84;5011482;28;20041;-70
2021/06/16 05:24:47;;;;;;;3.08;1.08;;;;;;;21.33;28.94;101783.81;5012032;28;20038;-70
2021/06/16 05:27:14;;;;;;;7.85;0.95;;;;;;;21.61;28.40;101781.00;5008208;28;20045;-69
2021/06/16 05:29:39;;;;;;;2.80;1.20;;;;;;;22.13;27.24;101785.13;5008752;28;20042;-70
2021/06/16 05:32:05;;;;;;;4.57;0.98;;;;;;;21.94;27.57;101791.81;5012709;28;20048;-70
2021/06/16 05:34:30;;;;;;;3.13;0.90;;;;;;;22.70;26.96;101788.84;5012181;28;20040;-69
2021/06/16 05:36:56;;;;;;;8.85;1.45;;;;;;;21.59;27.11;101799.72;5013875;28;20041;-71
2021/06/16 05:39:21;;;;;;;6.82;2.10;;;;;;;21.70;27.26;101791.81;5009046;28;20079;-70
2021/06/16 05:41:49;;;;;;;6.60;1.67;;;;;;;21.94;26.88;101783.81;5012460;28;20026;-70
2021/06/16 05:44:14;;;;;;;11.88;3.33;;;;;;;22.10;26.63;101782.72;5012163;28;20037;-69
2021/06/16 05:46:40;;;;;;;6.10;1.33;;;;;;;22.25;26.27;101786.00;5011769;28;20033;-72
2021/06/16 05:49:05;;;;;;;9.20;1.30;;;;;;;22.68;26.13;101782.75;4997698;28;20075;-71
2021/06/16 05:51:31;;;;;;;6.72;1.52;;;;;;;23.07;25.59;101783.28;5011514;28;20244;-71
2021/06/16 05:53:56;;;;;;;5.47;1.25;;;;;;;22.55;25.83;101777.50;5002708;28;20026;-72
2021/06/16 05:56:22;;;;;;;2.45;0.95;;;;;;;23.07;25.07;101780.59;5013284;28;20928;-72
2021/06/16 05:58:47;;;;;;;2.78;1.48;;;;;;;22.86;25.12;101770.66;5011407;28;20128;-72
2021/06/16 06:01:13;;;;;;;6.45;1.02;;;;;;;23.49;24.56;101772.84;5012993;28;20472;-70
2021/06/16 06:03:42;;;;;;;4.45;1.00;;;;;;;24.10;23.82;101767.81;5015514;28;20309;-70
2021/06/16 06:06:09;;;;;;;4.80;1.30;;;;;;;23.60;24.01;101764.78;5012501;28;20076;-71
2021/06/16 06:08:35;;;;;;;4.00;1.02;;;;;;;23.60;24.59;101756.78;5012516;28;20025;-70
2021/06/16 06:11:03;;;;;;;3.13;1.15;;;;;;;23.61;24.36;101762.00;4996585;28;20033;-72
2021/06/16 06:13:29;;;;;;;4.38;1.55;;;;;;;23.81;24.76;101760.38;5015269;28;20033;-73
2021/06/16 06:15:54;;;;;;;5.07;1.55;;;;;;;23.28;25.15;101760.25;5014714;28;20380;-71
2021/06/16 06:18:22;;;;;;;3.78;1.15;;;;;;;24.61;23.74;101756.31;5012318;28;20037;-72
2021/06/16 06:20:48;;;;;;;3.65;1.10;;;;;;;25.09;23.35;101754.03;5016546;28;20246;-69
2021/06/16 06:23:15;;;;;;;2.95;0.80;;;;;;;25.46;22.64;101757.78;5013993;28;20101;-69
2021/06/16 06:25:41;;;;;;;5.25;1.20;;;;;;;25.39;22.32;101761.13;5015032;28;20064;-73
2021/06/16 06:28:06;;;;;;;6.13;1.27;;;;;;;25.25;22.51;101743.66;5008218;28;20073;-72
2021/06/16 06:30:32;;;;;;;4.78;0.98;;;;;;;26.20;22.10;101744.84;5000022;28;20042;-71
2021/06/16 06:32:58;;;;;;;6.13;1.42;;;;;;;26.22;21.52;101743.75;5021162;28;20037;-69
2021/06/16 06:35:23;;;;;;;6.50;1.42;;;;;;;27.64;20.29;101743.56;5026984;28;20576;-69
2021/06/16 06:37:49;;;;;;;5.25;1.02;;;;;;;27.48;20.55;101749.56;5024233;28;20514;-69
2021/06/16 06:40:15;;;;;;;6.03;1.83;;;;;;;27.87;19.71;101742.06;5023937;28;20056;-69
2021/06/16 06:42:40;;;;;;;3.47;1.13;;;;;;;27.46;19.86;101730.94;5012513;28;20044;-70
2021/06/16 06:45:07;;;;;;;9.88;2.17;;;;;;;27.27;20.37;101731.06;5012709;28;20120;-69
2021/06/16 06:47:32;;;;;;;3.65;1.20;;;;;;;27.00;21.30;101732.75;5013875;28;20033;-69
2021/06/16 06:49:58;;;;;;;8.80;2.40;;;;;;;28.41;19.22;101727.69;5013472;28;20048;-69
2021/06/16 06:52:23;;;;;;;2.88;1.50;;;;;;;28.22;19.77;101734.97;5011126;28;20076;-70
2021/06/16 06:54:51;;;;;;;7.50;2.13;;;;;;;27.70;20.49;101729.50;5010979;28;20030;-69
2021/06/16 06:57:18;;;;;;;8.80;1.98;;;;;;;28.01;20.38;101731.75;5019433;28;20037;-69
2021/06/16 06:59:43;;;;;;;9.23;2.05;;;;;;;29.00;19.33;101719.75;5014817;28;20037;-68
2021/06/16 07:02:09;;;;;;;5.18;1.80;;;;;;;28.00;19.83;101727.41;5013290;28;20042;-69
2021/06/16 07:04:35;;;;;;;5.65;1.75;;;;;;;27.49;20.57;101727.09;5011566;28;20106;-70
2021/06/16 07:07:00;;;;;;;4.55;2.00;;;;;;;27.33;21.14;101725.09;5011225;28;20034;-69
2021/06/16 07:09:25;;;;;;;6.47;1.92;;;;;;;27.39;20.62;101718.28;5008958;28;20053;-69
2021/06/16 07:11:52;;;;;;;5.88;1.70;;;;;;;27.29;20.46;101721.00;5008910;28;20045;-69
2021/06/16 07:14:18;;;;;;;7.35;1.75;;;;;;;26.47;21.75;101718.13;5005003;28;20556;-70
2021/06/16 07:16:43;;;;;;;8.38;2.08;;;;;;;27.43;20.63;101712.44;5009798;28;20021;-69
2021/06/16 07:19:09;;;;;;;8.25;1.45;;;;;;;28.46;20.41;101711.94;5003091;28;20407;-70
2021/06/16 07:21:35;;;;;;;9.05;1.73;;;;;;;28.36;19.96;101711.19;5012142;28;20375;-68
2021/06/16 07:24:01;;;;;;;5.10;1.67;;;;;;;28.23;20.02;101703.56;5008395;28;20041;-69
2021/06/16 07:26:27;;;;;;;8.75;2.05;;;;;;;27.15;20.66;101700.09;5008345;28;20034;-69
2021/06/16 07:28:52;;;;;;;7.55;2.10;;;;;;;27.24;21.30;101704.53;5009126;28;20638;-69
2021/06/16 07:31:18;;;;;;;7.63;2.35;;;;;;;27.65;21.12;101697.75;5008208;28;20542;-70
2021/06/16 07:33:44;;;;;;;7.22;2.90;;;;;;;27.64;21.21;101698.75;5009842;28;20030;-69
2021/06/16 07:36:10;;;;;;;6.57;2.03;;;;;;;28.10;20.63;101687.84;5015030;28;20018;-70
2021/06/16 07:38:35;;;;;;;4.07;1.73;;;;;;;28.82;19.82;101687.59;5014166;28;20574;-71
2021/06/16 07:41:01;;;;;;;4.05;1.85;;;;;;;28.64;19.72;101693.91;5012530;28;20033;-69
2021/06/16 07:43:27;;;;;;;4.40;1.80;;;;;;;28.80;20.03;101692.28;5012550;28;20033;-70
2021/06/16 07:45:53;;;;;;;6.18;1.60;;;;;;;29.26;20.46;101695.44;4992999;28;20129;-70
2021/06/16 07:48:18;;;;;;;3.47;1.75;;;;;;;29.73;19.10;101684.06;5008367;28;20034;-69
2021/06/16 07:50:44;;;;;;;6.65;2.15;;;;;;;29.57;19.17;101683.03;5006776;28;20034;-70
2021/06/16 07:53:09;;;;;;;7.65;2.08;;;;;;;30.73;18.60;101679.09;5011329;28;20044;-71
2021/06/16 07:55:38;;;;;;;8.95;1.30;;;;;;;28.95;19.45;101678.03;5012089;28;20072;-69
2021/06/16 07:58:06;;;;;;;2.95;0.77;;;;;;;30.41;18.90;101685.47;5011185;28;20030;-68
2021/06/16 08:00:32;;;;;;;6.82;1.33;;;;;;;30.08;18.28;101684.72;5011344;28;20521;-69
2021/06/16 08:02:57;;;;;;;6.65;0.95;;;;;;;31.38;18.22;101679.72;5007831;28;20041;-67
2021/06/16 08:05:23;;;;;;;9.60;2.10;;;;;;;31.91;17.51;101677.94;5008180;28;20029;-70
2021/06/16 08:07:48;;;;;;;7.68;2.00;;;;;;;31.91;17.15;101677.94;5008588;28;20359;-69
2021/06/16 08:10:14;;;;;;;7.70;1.70;;;;;;;30.86;17.52;101678.53;5016175;28;20033;-68
2021/06/16 08:12:41;;;;;;;6.47;1.52;;;;;;;28.76;19.77;101678.31;5020470;28;20026;-69
2021/06/16 08:15:07;;;;;;;7.47;1.17;;;;;;;29.00;19.21;101684.78;5035951;28;20772;-69
2021/06/16 08:17:33;;;;;;;14.45;2.40;;;;;;;30.31;18.99;101682.97;4998636;28;20132;-68
2021/06/16 08:19:59;;;;;;;6.63;1.02;;;;;;;31.47;17.89;101670.56;5006577;28;20349;-70
2021/06/16 08:22:25;;;;;;;6.53;1.23;;;;;;;31.69;17.42;101671.56;4993029;28;20041;-70
2021/06/16 08:24:50;;;;;;;3.72;0.93;;;;;;;31.32;16.97;101678.59;5010187;28;20030;-69
2021/06/16 08:27:19;;;;;;;4.97;1.33;;;;;;;32.13;16.70;101670.81;5011093;28;20557;-69
2021/06/16 08:29:45;;;;;;;3.35;0.80;;;;;;;31.92;16.72;101674.22;5011943;28;20057;-68
2021/06/16 08:32:11;;;;;;;3.03;0.93;;;;;;;31.60;17.04;101668.09;5015388;28;20038;-70
2021/06/16 08:34:36;;;;;;;2.60;1.00;;;;;;;30.76;17.36;101673.38;5010366;28;20037;-70
2021/06/16 08:37:04;;;;;;;1.98;0.75;;;;;;;30.41;17.40;101668.44;5011410;28;20060;-69
2021/06/16 08:39:30;;;;;;;7.57;1.25;;;;;;;30.77;18.04;101656.16;5006726;28;20346;-68
2021/06/16 08:41:55;;;;;;;3.53;2.55;;;;;;;31.14;18.32;101668.13;5006143;28;20060;-69
2021/06/16 08:44:21;;;;;;;6.97;0.95;;;;;;;30.89;18.00;101661.13;5007440;28;20040;-70
2021/06/16 08:46:48;;;;;;;5.13;0.80;;;;;;;30.50;18.02;101662.00;5008691;28;20026;-69
2021/06/16 08:49:14;;;;;;;7.43;0.80;;;;;;;30.97;17.20;101658.41;5008287;28;20040;-69
2021/06/16 08:51:39;;;;;;;10.35;1.30;;;;;;;30.35;18.04;101654.63;5008571;28;20564;-70
2021/06/16 08:54:07;;;;;;;3.38;1.02;;;;;;;30.97;16.77;101647.59;5005944;28;20125;-70
2021/06/16 08:56:33;;;;;;;5.18;1.52;;;;;;;30.81;16.93;101643.16;5007936;28;20034;-70
2021/06/16 08:58:59;;;;;;;1.98;0.68;;;;;;;30.17;17.36;101638.69;5005254;28;20046;-69
2021/06/16 09:01:24;;;;;;;5.10;1.50;;;;;;;30.07;17.40;101643.41;5004048;28;20269;-70
2021/06/16 09:03:50;;;;;;;6.95;1.15;;;;;;;29.46;18.28;101642.09;5003121;28;20036;-70
2021/06/16 09:06:16;;;;;;;7.03;0.85;;;;;;;30.25;18.85;101637.00;5009954;28;20541;-68
2021/06/16 09:09:00;;;;;;;5.85;1.38;;;;;;;31.01;17.91;101632.75;5009175;28;20656;-70
2021/06/16 09:11:46;;;;;;;4.68;0.88;;;;;;;30.73;17.05;101629.69;5005145;28;20036;-70
2021/06/16 09:14:20;;;;;;;4.47;1.13;;;;;;;29.95;16.99;101634.88;5006715;28;20033;-69
2021/06/16 09:16:47;;;;;;;1.67;0.80;;;;;;;29.96;17.87;101633.84;5010111;28;20135;-68
2021/06/16 09:19:17;;;;;;;7.35;1.30;;;;;;;30.75;16.97;101635.75;5002129;28;20049;-68
2021/06/16 09:21:42;;;;;;;9.95;1.10;;;;;;;29.94;17.41;101625.06;5004383;28;20065;-68
2021/06/16 09:24:09;;;;;;;9.65;0.63;;;;;;;29.93;17.26;101618.03;5003627;28;20072;-69
2021/06/16 09:26:39;;;;;;;6.78;2.28;;;;;;;28.95;18.11;101609.94;5006931;28;20036;-67
2021/06/16 09:29:06;;;;;;;13.43;6.50;;;;;;;28.16;17.58;101611.97;5004525;28;20065;-67
2021/06/16 09:31:38;;;;;;;3.72;0.70;;;;;;;27.25;19.38;101607.78;5011284;28;20033;-68
2021/06/16 09:34:09;;;;;;;2.78;0.50;;;;;;;27.16;19.39;101613.22;5004358;28;20518;-67
2021/06/16 09:36:55;;;;;;;3.13;0.93;;;;;;;27.40;20.35;101613.44;5013021;28;20109;-68
2021/06/16 09:39:25;;;;;;;8.68;0.80;;;;;;;28.72;19.51;101607.88;5011366;28;20085;-69
2021/06/16 09:41:53;;;;;;;3.47;0.93;;;;;;;27.66;19.95;101609.97;5010620;28;20112;-69
2021/06/16 09:44:44;;;;;;;6.40;0.77;;;;;;;27.13;19.75;101611.69;5012270;28;20515;-69
2021/06/16 09:47:14;;;;;;;4.50;0.60;;;;;;;26.32;20.23;101608.91;5015824;28;20076;-69
2021/06/16 09:50:00;;;;;;;5.43;1.17;;;;;;;25.12;21.61;101612.00;5010651;28;20081;-68
2021/06/16 09:52:26;;;;;;;5.47;0.95;;;;;;;25.27;21.57;101607.94;5012045;28;20486;-67
2021/06/16 09:54:52;;;;;;;3.65;0.98;;;;;;;25.59;20.78;101609.47;5011628;28;20029;-68
2021/06/16 09:57:17;;;;;;;8.07;0.90;;;;;;;25.57;21.07;101592.72;5016617;28;20030;-68
2021/06/16 09:59:49;;;;;;;9.38;1.05;;;;;;;25.33;21.69;101595.81;5011140;28;20069;-68
2021/06/16 10:02:28;;;;;;;3.88;0.70;;;;;;;25.25;21.70;101604.53;5009992;28;20402;-69
2021/06/16 10:05:00;;;;;;;6.00;0.50;;;;;;;24.61;21.98;101601.31;5012158;28;20033;-67
2021/06/16 10:07:38;;;;;;;6.95;1.00;;;;;;;24.62;22.38;101597.66;5015046;28;20280;-68
2021/06/16 10:10:09;;;;;;;3.35;0.70;;;;;;;24.99;21.23;101598.88;5010862;28;20037;-68
2021/06/16 10:12:42;;;;;;;5.87;0.73;;;;;;;25.10;21.17;101606.78;5009020;28;20034;-68
2021/06/16 10:15:08;;;;;;;3.42;0.50;;;;;;;25.84;20.99;101584.78;5007674;28;20039;-68
2021/06/16 10:17:34;;;;;;;1.45;0.60;;;;;;;25.73;20.57;101595.63;4996126;28;20025;-68
2021/06/16 10:20:00;;;;;;;3.80;2.03;;;;;;;25.46;20.69;101589.19;5010290;28;20566;-68
2021/06/16 10:22:26;;;;;;;5.25;0.60;;;;;;;25.63;20.98;101592.16;4990959;28;20065;-67
2021/06/16 10:24:52;;;;;;;2.42;0.57;;;;;;;25.75;20.76;101596.34;5007231;28;20069;-69
2021/06/16 10:27:25;;;;;;;3.05;0.32;;;;;;;26.19;20.54;101598.50;5009458;28;20035;-69
2021/06/16 10:29:52;;;;;;;3.85;1.05;;;;;;;26.17;20.92;101590.59;5008390;28;20049;-69
2021/06/16 10:32:19;;;;;;;7.60;0.68;;;;;;;26.32;20.06;101587.44;5010855;28;20055;-66
2021/06/16 10:35:06;;;;;;;3.28;0.77;;;;;;;25.48;21.25;101589.88;5006948;28;20116;-68
2021/06/16 10:37:34;;;;;;;4.72;0.95;;;;;;;25.31;21.58;101587.94;4995595;28;20041;-68
2021/06/16 10:40:27;;;;;;;4.43;0.47;;;;;;;26.10;21.34;101589.50;5009294;28;20629;-68
2021/06/16 10:42:58;;;;;;;2.58;0.60;;;;;;;26.27;20.23;101578.03;5013411;28;20037;-69
2021/06/16 10:45:27;;;;;;;;;;;;;;;26.04;20.39;101571.31;5007970;28;20037;-67
2021/06/16 10:48:03;;;;;;;2.95;0.43;;;;;;;26.11;20.55;101576.94;4988208;28;19973;-68
2021/06/16 10:50:48;;;;;;;2.33;0.30;;;;;;;26.69;19.60;101574.84;5007799;28;20455;-68
2021/06/16 10:53:18;;;;;;;2.75;0.38;;;;;;;27.24;18.57;101568.50;5007208;28;20042;-68
2021/06/16 10:55:56;;;;;;;1.90;0.52;;;;;;;26.66;19.44;101569.78;5009807;28;20034;-68
2021/06/16 10:58:29;;;;;;;5.75;0.90;;;;;;;26.56;19.58;101563.63;5007385;28;20487;-70
2021/06/16 11:01:15;;;;;;;6.13;0.73;;;;;;;26.54;19.43;101570.13;5011733;28;20038;-66
2021/06/16 11:03:53;;;;;;;1.92;0.30;;;;;;;26.54;18.97;101570.13;5011585;28;20040;-68
2021/06/16 11:06:36;;;;;;;6.47;0.60;;;;;;;25.98;20.06;101579.94;5012286;28;20080;-68
2021/06/16 11:09:43;;;;;;;6.57;0.60;;;;;;;26.67;19.78;101568.81;5010597;28;20136;-69
2021/06/16 11:12:12;;;;;;;2.55;1.15;;;;;;;27.71;18.33;101560.16;5008047;28;20084;-67
2021/06/16 11:14:38;;;;;;;3.45;0.40;;;;;;;28.26;18.39;101556.28;5009117;28;20351;-66
2021/06/16 11:17:08;;;;;;;5.47;0.40;;;;;;;27.95;17.69;101563.16;5005954;28;20498;-67
2021/06/16 11:19:36;;;;;;;2.25;0.30;;;;;;;27.90;18.00;101548.34;5010509;28;20137;-68
2021/06/16 11:22:05;;;;;;;5.07;0.40;;;;;;;27.90;18.56;101543.00;5008896;28;20092;-67
2021/06/16 11:25:10;;;;;;;1.42;0.50;;;;;;;28.03;18.10;101539.00;5010915;28;20041;-67
2021/06/16 11:27:57;;;;;;;4.28;0.47;;;;;;;28.12;18.09;101535.38;5009808;28;20034;-67
2021/06/16 11:30:33;;;;;;;1.85;0.35;;;;;;;28.07;17.81;101540.38;5026595;28;20058;-68